Time;durP1;ratioP1;P1;durP2;ratioP2;P2;SDS_P1;SDS_P2;PMS_P1;PMS_P2;Temp;Humidity;BMP_temperature;BMP_pressure;BME280_temperature;BME280_humidity;BME280_pressure;Samples;Min_cycle;Max_cycle;Signal;HPM_P1;HPM_P2
2022/12/08 00:01:51;;;;;;;22.70;12.93;;;;;;;41.78;37.38;100954.75;6249793;22;20370;-74
2022/12/08 00:04:17;;;;;;;19.87;13.00;;;;;;;41.66;37.29;100951.13;6277330;22;20377;-75
2022/12/08 00:09:32;;;;;;;22.73;12.97;;;;;;;41.59;37.27;100940.75;6277026;22;20182;-75
2022/12/08 00:12:03;;;;;;;19.93;13.67;;;;;;;41.92;36.87;100948.25;6243584;22;20477;-73
2022/12/08 00:14:36;;;;;;;25.90;13.73;;;;;;;41.84;37.39;100944.47;6249771;22;20848;-75
2022/12/08 00:17:04;;;;;;;20.10;13.07;;;;;;;41.81;37.11;100943.22;6249641;22;20392;-75
2022/12/08 00:19:31;;;;;;;20.27;11.43;;;;;;;41.92;37.12;100948.25;6249737;22;20378;-73
2022/12/08 00:21:57;;;;;;;20.60;13.90;;;;;;;41.76;37.44;100943.41;6249589;22;20732;-72
2022/12/08 00:24:29;;;;;;;21.70;13.87;;;;;;;41.59;37.47;100929.88;6249587;22;20464;-75
2022/12/08 00:26:55;;;;;;;14.53;12.50;;;;;;;41.85;37.07;100925.06;6249598;22;20722;-73
2022/12/08 00:29:21;;;;;;;17.07;12.83;;;;;;;41.78;37.53;100927.50;6249359;22;20917;-75
2022/12/08 00:31:47;;;;;;;26.97;14.33;;;;;;;41.96;36.96;100924.66;6274551;22;20441;-73
2022/12/08 00:34:13;;;;;;;19.80;13.30;;;;;;;42.03;36.82;100917.53;6275101;22;20378;-73
2022/12/08 00:36:40;;;;;;;22.03;14.03;;;;;;;41.87;37.10;100908.41;6275125;22;20390;-75
2022/12/08 00:39:06;;;;;;;19.90;12.70;;;;;;;41.90;37.22;100912.38;6275103;22;20380;-75
2022/12/08 00:44:17;;;;;;;30.43;15.03;;;;;;;42.11;36.81;100903.06;6275084;22;20886;-75
2022/12/08 00:46:44;;;;;;;22.83;12.97;;;;;;;41.91;36.76;100900.34;6274872;22;20469;-75
2022/12/08 00:49:11;;;;;;;20.93;13.80;;;;;;;41.97;36.92;100885.38;6274879;22;20815;-75
2022/12/08 00:51:37;;;;;;;29.80;13.83;;;;;;;42.05;36.85;100893.50;6274904;22;20461;-75
2022/12/08 00:54:05;;;;;;;19.87;12.27;;;;;;;42.06;37.02;100888.84;6275042;22;20805;-75
2022/12/08 00:56:31;;;;;;;19.80;12.10;;;;;;;42.02;37.03;100893.34;6275057;22;20409;-73
2022/12/08 00:58:57;;;;;;;26.37;13.93;;;;;;;41.88;37.26;100896.34;6274846;22;20413;-75
2022/12/08 01:01:23;;;;;;;19.93;13.87;;;;;;;41.74;37.53;100884.88;6274938;22;20463;-73
2022/12/08 01:03:49;;;;;;;23.30;14.00;;;;;;;41.78;37.40;100885.84;6276109;22;20388;-73
2022/12/08 01:06:15;;;;;;;34.93;14.20;;;;;;;41.81;37.11;100888.72;6274836;22;20382;-74
2022/12/08 01:08:41;;;;;;;22.43;12.87;;;;;;;41.57;37.65;100875.72;6274646;22;20806;-73
2022/12/08 01:11:11;;;;;;;23.70;13.40;;;;;;;41.29;38.43;100872.66;6274694;22;20381;-73
2022/12/08 01:13:37;;;;;;;22.47;13.17;;;;;;;41.25;38.19;100870.94;6274852;22;20425;-73
2022/12/08 01:16:03;;;;;;;25.53;14.60;;;;;;;41.34;38.13;100869.00;6274565;22;20382;-73
2022/12/08 01:18:30;;;;;;;27.40;15.63;;;;;;;41.28;38.16;100862.13;6274719;22;20417;-75
2022/12/08 01:21:05;;;;;;;19.50;13.60;;;;;;;41.42;38.10;100864.63;6274611;22;20439;-75
2022/12/08 01:23:31;;;;;;;31.30;15.03;;;;;;;41.32;38.44;100852.19;6274690;22;20435;-73
2022/12/08 01:26:02;;;;;;;22.27;12.83;;;;;;;41.31;38.45;100848.66;6274555;22;20413;-73
2022/12/08 01:28:29;;;;;;;27.77;11.73;;;;;;;41.12;38.45;100845.53;6274448;22;20389;-75
2022/12/08 01:30:56;;;;;;;22.40;16.37;;;;;;;41.18;38.75;100838.78;6274254;22;20441;-72
2022/12/08 01:33:22;;;;;;;21.57;12.50;;;;;;;41.61;37.91;100846.69;6274449;22;20920;-75
2022/12/08 01:35:48;;;;;;;19.30;14.67;;;;;;;41.45;38.11;100842.97;6274622;22;20381;-75
2022/12/08 01:38:14;;;;;;;17.20;13.30;;;;;;;41.54;37.83;100849.16;6274585;22;20370;-73
2022/12/08 01:40:40;;;;;;;24.20;15.20;;;;;;;41.41;38.05;100850.22;6275047;22;20718;-74
2022/12/08 01:43:13;;;;;;;18.43;12.73;;;;;;;41.71;37.82;100842.78;6274436;22;20373;-73
2022/12/08 01:45:39;;;;;;;22.47;12.90;;;;;;;41.26;38.29;100839.88;6274021;22;20381;-75
2022/12/08 01:48:11;;;;;;;31.53;13.90;;;;;;;41.41;37.97;100843.97;6274775;22;20405;-73
2022/12/08 01:50:40;;;;;;;35.40;13.50;;;;;;;41.56;38.05;100841.47;6274329;22;20741;-73
2022/12/08 01:53:14;;;;;;;23.97;13.37;;;;;;;41.58;37.86;100841.91;6274355;22;20417;-73
2022/12/08 01:55:52;;;;;;;20.03;12.90;;;;;;;41.71;37.33;100837.34;6274171;22;20753;-75
2022/12/08 01:58:44;;;;;;;23.73;12.47;;;;;;;41.38;38.28;100842.72;6274462;22;20854;-73
2022/12/08 02:01:10;;;;;;;24.17;12.70;;;;;;;41.42;38.06;100840.13;6274247;22;20443;-73
2022/12/08 02:04:05;;;;;;;26.17;15.50;;;;;;;41.49;38.02;100838.44;6274319;22;20385;-73
2022/12/08 02:06:36;;;;;;;18.17;12.97;;;;;;;41.35;38.36;100835.19;6276328;22;20364;-74
2022/12/08 02:09:04;;;;;;;18.20;12.27;;;;;;;41.43;38.04;100834.34;6274262;22;20421;-74
2022/12/08 02:11:33;;;;;;;28.43;14.90;;;;;;;41.27;38.38;100828.66;6274196;22;20382;-73
2022/12/08 02:14:18;;;;;;;33.30;16.20;;;;;;;41.56;38.17;100832.50;6274059;22;20378;-73
2022/12/08 02:17:17;;;;;;;25.90;17.73;;;;;;;41.66;37.44;100836.72;6273741;22;20377;-73
2022/12/08 02:20:12;;;;;;;21.50;13.63;;;;;;;41.49;38.03;100835.72;6276123;22;20364;-73
2022/12/08 02:22:56;;;;;;;21.03;13.13;;;;;;;41.54;37.28;100832.81;6274185;22;20463;-73
2022/12/08 02:25:50;;;;;;;18.27;12.63;;;;;;;41.57;37.71;100834.88;6276111;22;20361;-73
2022/12/08 02:28:32;;;;;;;25.23;12.90;;;;;;;41.69;37.05;100828.72;6273967;22;20469;-73
2022/12/08 02:31:04;;;;;;;20.30;12.80;;;;;;;41.52;37.14;100826.91;6273879;22;20449;-75
2022/12/08 02:33:58;;;;;;;19.27;12.40;;;;;;;41.50;37.68;100828.38;6274126;22;20409;-75
2022/12/08 02:36:28;;;;;;;16.00;11.57;;;;;;;41.42;37.56;100830.00;6273997;22;20953;-73
2022/12/08 02:39:09;;;;;;;19.90;13.20;;;;;;;41.53;37.04;100833.16;6273984;22;20470;-73
2022/12/08 02:41:46;;;;;;;15.87;11.07;;;;;;;41.73;36.80;100826.88;6274122;22;20431;-74
2022/12/08 02:44:33;;;;;;;24.63;14.20;;;;;;;41.68;36.90;100829.00;6274199;22;20389;-75
2022/12/08 02:47:24;;;;;;;24.53;12.77;;;;;;;41.56;37.14;100822.41;6274043;22;20895;-75
2022/12/08 02:49:50;;;;;;;20.40;12.93;;;;;;;41.15;37.75;100828.56;6273796;22;20479;-74
2022/12/08 02:52:16;;;;;;;27.37;11.80;;;;;;;40.70;38.49;100818.22;6274067;22;20385;-73
2022/12/08 02:55:02;;;;;;;30.47;16.13;;;;;;;40.53;38.77;100821.00;6273860;22;20469;-73
2022/12/08 02:57:31;;;;;;;16.27;12.57;;;;;;;40.85;38.06;100824.22;6274304;22;20632;-75
2022/12/08 03:00:07;;;;;;;20.67;14.37;;;;;;;40.78;38.19;100825.53;6275964;22;20365;-73
2022/12/08 03:02:49;;;;;;;25.87;13.27;;;;;;;41.20;37.56;100817.50;6273916;22;20393;-73
2022/12/08 03:05:27;;;;;;;18.83;15.30;;;;;;;41.34;37.19;100820.78;6274061;22;20389;-74
2022/12/08 03:08:06;;;;;;;22.73;12.30;;;;;;;41.53;37.04;100811.38;6274083;22;20386;-73
2022/12/08 03:11:00;;;;;;;22.40;13.73;;;;;;;41.36;37.20;100827.81;6273859;22;20417;-75
2022/12/08 03:13:38;;;;;;;20.10;13.83;;;;;;;41.14;37.17;100818.81;6273959;22;20725;-75
2022/12/08 03:16:07;;;;;;;18.93;13.33;;;;;;;41.35;37.35;100821.59;6273412;22;20382;-72
2022/12/08 03:18:37;;;;;;;25.00;13.87;;;;;;;41.15;37.59;100822.34;6274604;22;20407;-73
2022/12/08 03:21:05;;;;;;;22.33;12.07;;;;;;;41.24;37.24;100823.84;6276047;22;20350;-73
2022/12/08 03:23:32;;;;;;;21.60;15.63;;;;;;;41.22;37.36;100819.88;6273838;22;20393;-75
2022/12/08 03:26:19;;;;;;;19.77;12.70;;;;;;;41.20;37.06;100822.94;6274077;22;20377;-73
2022/12/08 03:28:45;;;;;;;27.57;16.93;;;;;;;41.40;36.96;100817.88;6275383;22;20420;-74
2022/12/08 03:31:14;;;;;;;21.40;12.97;;;;;;;41.21;37.52;100816.38;6275476;22;20480;-75
2022/12/08 03:33:46;;;;;;;25.00;13.10;;;;;;;41.31;37.08;100826.88;6275801;22;20413;-73
2022/12/08 03:36:13;;;;;;;18.33;13.47;;;;;;;41.48;36.95;100822.44;6275694;22;20389;-74
2022/12/08 03:38:44;;;;;;;57.10;13.70;;;;;;;41.44;36.74;100824.25;6275623;22;20452;-75
2022/12/08 03:41:17;;;;;;;37.00;15.73;;;;;;;41.54;36.82;100821.91;6275588;22;20384;-75
2022/12/08 03:43:47;;;;;;;16.10;13.00;;;;;;;41.63;36.79;100826.53;6275589;22;20379;-73
2022/12/08 03:46:15;;;;;;;30.10;15.57;;;;;;;40.72;38.14;100826.84;6277658;22;20908;-73
2022/12/08 03:48:41;;;;;;;24.87;18.23;;;;;;;40.86;37.99;100825.81;6275344;22;20432;-73
2022/12/08 03:51:08;;;;;;;19.70;14.50;;;;;;;41.01;38.00;100822.59;6275589;22;20370;-73
2022/12/08 03:53:34;;;;;;;23.30;15.43;;;;;;;41.02;38.16;100821.44;6275563;22;20380;-73
2022/12/08 03:56:00;;;;;;;22.07;17.67;;;;;;;40.71;38.72;100825.25;6275745;22;20405;-75
2022/12/08 03:58:26;;;;;;;26.77;16.73;;;;;;;40.97;38.51;100821.63;6275507;22;20727;-75
2022/12/08 04:00:51;;;;;;;25.37;18.13;;;;;;;41.11;38.21;100822.19;6275436;22;20412;-72
2022/12/08 04:03:17;;;;;;;29.27;16.30;;;;;;;41.20;37.64;100825.66;6275490;22;20450;-73
2022/12/08 04:05:43;;;;;;;24.83;18.20;;;;;;;41.00;37.88;100831.84;6275512;22;20373;-73
2022/12/08 04:08:09;;;;;;;29.10;20.00;;;;;;;41.21;37.73;100826.47;6275605;22;20703;-75
2022/12/08 04:10:35;;;;;;;18.33;16.40;;;;;;;41.04;37.90;100830.06;6275225;22;20843;-75
2022/12/08 04:13:01;;;;;;;21.33;17.20;;;;;;;41.01;38.00;100834.25;6275282;22;20869;-73
2022/12/08 04:15:27;;;;;;;27.87;19.77;;;;;;;40.79;38.79;100829.06;6277662;22;20193;-73
2022/12/08 04:17:53;;;;;;;25.30;19.90;;;;;;;40.26;39.40;100827.59;6275149;22;20414;-75
2022/12/08 04:20:19;;;;;;;33.90;21.73;;;;;;;40.55;39.45;100824.97;6275305;22;20378;-74
2022/12/08 04:22:45;;;;;;;46.13;27.70;;;;;;;40.53;39.40;100840.84;6275100;22;20406;-75
2022/12/08 04:25:11;;;;;;;28.60;21.57;;;;;;;40.74;38.61;100838.19;6275270;22;20382;-74
2022/12/08 04:27:37;;;;;;;42.70;22.17;;;;;;;40.60;39.00;100831.38;6275034;22;20463;-74
2022/12/08 04:30:03;;;;;;;34.50;22.70;;;;;;;40.61;39.16;100836.47;6274863;22;20445;-75
2022/12/08 04:32:29;;;;;;;36.47;26.23;;;;;;;40.41;39.74;100842.59;6275107;22;20727;-75
2022/12/08 04:34:55;;;;;;;39.10;29.53;;;;;;;40.26;39.63;100833.81;6275147;22;20853;-73
2022/12/08 04:37:21;;;;;;;40.80;28.37;;;;;;;40.07;39.95;100844.25;6274878;22;20466;-73
2022/12/08 04:39:47;;;;;;;35.63;27.17;;;;;;;40.09;39.86;100849.38;6274570;22;20406;-75
2022/12/08 04:42:13;;;;;;;33.50;28.93;;;;;;;40.62;39.36;100848.94;6275007;22;20385;-75
2022/12/08 04:44:39;;;;;;;36.03;27.93;;;;;;;40.08;39.98;100854.00;6274708;22;20378;-73
2022/12/08 04:47:05;;;;;;;46.50;29.40;;;;;;;40.16;39.96;100855.91;6275004;22;20473;-74
2022/12/08 04:49:31;;;;;;;35.47;26.70;;;;;;;40.35;39.54;100855.56;6274809;22;20433;-75
2022/12/08 04:51:56;;;;;;;32.53;26.70;;;;;;;40.00;39.93;100857.50;6274935;22;20730;-73
2022/12/08 04:54:22;;;;;;;33.03;21.43;;;;;;;39.95;40.06;100866.59;6275286;22;20385;-73
2022/12/08 04:56:48;;;;;;;31.77;26.13;;;;;;;40.32;39.57;100869.78;6274975;22;20409;-73
2022/12/08 04:59:14;;;;;;;39.63;25.77;;;;;;;40.34;39.56;100872.19;6274898;22;20381;-73
2022/12/08 05:01:40;;;;;;;28.17;21.03;;;;;;;40.43;39.67;100872.97;6275271;22;20393;-75
2022/12/08 05:04:06;;;;;;;30.90;21.13;;;;;;;40.03;39.86;100876.69;6274449;22;20393;-73
2022/12/08 05:06:32;;;;;;;32.20;24.73;;;;;;;39.80;40.54;100882.59;6274834;22;20381;-73
2022/12/08 05:08:58;;;;;;;33.43;21.13;;;;;;;39.94;40.23;100875.88;6274947;22;20938;-74
2022/12/08 05:11:24;;;;;;;30.00;22.90;;;;;;;39.69;40.48;100876.66;6274666;22;20385;-74
2022/12/08 05:13:50;;;;;;;25.83;18.87;;;;;;;39.73;40.60;100891.22;6274654;22;20392;-73
2022/12/08 05:16:16;;;;;;;26.97;22.37;;;;;;;39.87;39.98;100886.41;6274572;22;20469;-72
2022/12/08 05:18:42;;;;;;;32.10;22.93;;;;;;;39.71;40.36;100885.28;6276510;22;20358;-74
2022/12/08 05:21:09;;;;;;;33.97;23.40;;;;;;;39.99;39.91;100891.22;6274470;22;20405;-73
2022/12/08 05:23:35;;;;;;;25.93;22.03;;;;;;;39.59;40.77;100893.22;6273743;22;20382;-72
2022/12/08 05:26:01;;;;;;;28.70;25.07;;;;;;;40.02;39.78;100890.56;6273839;22;20731;-72
2022/12/08 05:28:27;;;;;;;36.67;23.17;;;;;;;40.23;39.77;100886.13;6271682;22;20389;-74
2022/12/08 05:30:53;;;;;;;32.97;23.90;;;;;;;39.95;39.92;100891.03;6273470;22;20964;-72
2022/12/08 05:33:19;;;;;;;26.50;20.70;;;;;;;40.29;39.39;100903.84;6271519;22;20881;-73
2022/12/08 05:35:45;;;;;;;32.80;23.23;;;;;;;40.13;39.70;100893.78;6271078;22;20405;-78
2022/12/08 05:38:11;;;;;;;36.07;20.80;;;;;;;39.96;40.18;100895.38;6271327;22;20386;-74
2022/12/08 05:40:38;;;;;;;32.90;23.03;;;;;;;39.96;39.98;100891.84;6271635;22;20866;-75
2022/12/08 05:43:04;;;;;;;41.63;23.50;;;;;;;40.12;40.00;100900.34;6272099;22;20405;-75
2022/12/08 05:45:30;;;;;;;28.83;23.40;;;;;;;40.31;39.68;100902.72;6272138;22;20413;-74
2022/12/08 05:47:56;;;;;;;30.23;24.27;;;;;;;40.20;39.60;100899.53;6272012;22;20924;-74
2022/12/08 05:50:22;;;;;;;41.13;24.83;;;;;;;40.20;39.63;100903.03;6271753;22;20795;-74
2022/12/08 05:52:48;;;;;;;43.70;24.50;;;;;;;39.62;40.36;100906.19;6272115;22;20901;-74
2022/12/08 05:55:14;;;;;;;31.90;24.87;;;;;;;39.99;40.48;100902.88;6271774;22;20382;-74
2022/12/08 05:57:40;;;;;;;39.30;28.90;;;;;;;40.24;40.03;100909.44;6273889;22;20461;-74
2022/12/08 06:00:07;;;;;;;48.03;26.73;;;;;;;40.00;40.27;100909.91;6274046;22;20511;-72
2022/12/08 06:02:33;;;;;;;44.83;27.83;;;;;;;40.04;40.46;100920.97;6275713;22;20362;-71
2022/12/08 06:04:59;;;;;;;47.63;29.13;;;;;;;39.92;40.29;100923.50;6273854;22;20874;-72
2022/12/08 06:07:25;;;;;;;42.73;27.13;;;;;;;39.77;40.51;100922.03;6274063;22;20397;-73
2022/12/08 06:09:51;;;;;;;37.47;28.10;;;;;;;40.00;40.35;100926.19;6276267;22;20417;-73
2022/12/08 06:12:20;;;;;;;274.00;176.20;;;;;;;40.23;39.89;100932.31;6274202;22;20382;-73
2022/12/08 06:14:45;;;;;;;134.20;76.60;;;;;;;40.34;39.54;100930.06;6274039;22;20372;-73
2022/12/08 06:17:12;;;;;;;171.60;94.90;;;;;;;39.86;40.35;100941.84;6274195;22;20381;-72
2022/12/08 06:19:37;;;;;;;229.23;122.13;;;;;;;39.76;40.41;100948.38;6274179;22;20377;-72
2022/12/08 06:22:03;;;;;;;292.30;162.27;;;;;;;39.78;40.52;100948.09;6275548;22;20358;-73
2022/12/08 06:24:29;;;;;;;174.70;101.60;;;;;;;40.20;40.08;100949.25;6273847;22;20725;-73
2022/12/08 06:26:55;;;;;;;139.23;74.77;;;;;;;40.14;40.01;100961.38;6248490;22;20380;-73
2022/12/08 06:29:21;;;;;;;351.23;192.67;;;;;;;40.21;39.93;100956.31;6273965;22;20414;-72
2022/12/08 06:31:47;;;;;;;127.57;81.33;;;;;;;40.45;39.75;100963.13;6273943;22;20441;-71
2022/12/08 06:34:13;;;;;;;419.57;242.60;;;;;;;40.62;39.63;100963.16;6274132;22;20389;-72
2022/12/08 06:36:39;;;;;;;526.97;303.63;;;;;;;40.63;39.26;100962.03;6272805;22;20377;-73
2022/12/08 06:39:05;;;;;;;196.77;116.00;;;;;;;40.29;39.46;100969.09;6274869;22;20361;-73
2022/12/08 06:41:31;;;;;;;498.07;283.87;;;;;;;40.63;39.20;100980.28;6273750;22;20392;-73
2022/12/08 06:43:57;;;;;;;387.83;224.43;;;;;;;40.83;38.90;100978.81;6273599;22;20369;-73
2022/12/08 06:46:23;;;;;;;240.47;124.97;;;;;;;40.44;39.50;100977.84;6271817;22;20374;-73
2022/12/08 06:48:49;;;;;;;260.90;139.53;;;;;;;40.49;39.20;100989.41;6271541;22;20433;-73
2022/12/08 06:51:18;;;;;;;59.63;36.63;;;;;;;40.23;39.33;100994.03;6271745;22;20381;-73
2022/12/08 06:53:46;;;;;;;57.07;28.43;;;;;;;40.66;39.20;100993.25;6271623;22;20377;-73
2022/12/08 06:56:14;;;;;;;48.60;27.57;;;;;;;40.23;39.90;100996.75;6271458;22;20404;-74
2022/12/08 06:58:41;;;;;;;47.17;29.87;;;;;;;40.54;39.13;100996.59;6271755;22;20893;-73
2022/12/08 07:01:11;;;;;;;79.27;50.70;;;;;;;40.66;38.95;101004.13;6271533;22;20394;-72
2022/12/08 07:03:38;;;;;;;59.73;33.43;;;;;;;40.78;38.83;101012.41;6273019;22;20377;-73
2022/12/08 07:06:05;;;;;;;51.67;36.90;;;;;;;40.99;38.45;101013.34;6275882;22;20842;-73
2022/12/08 07:08:33;;;;;;;46.63;33.63;;;;;;;40.52;39.26;101018.69;6275752;22;20478;-73
2022/12/08 07:11:04;;;;;;;65.70;44.30;;;;;;;40.76;38.98;101015.47;6275900;22;20397;-73
2022/12/08 07:13:30;;;;;;;47.40;30.43;;;;;;;40.73;38.92;101012.56;6275739;22;20383;-71
2022/12/08 07:15:56;;;;;;;50.13;29.50;;;;;;;40.69;38.83;101019.78;6275770;22;20370;-74
2022/12/08 07:18:22;;;;;;;47.03;28.10;;;;;;;40.89;38.79;101023.78;6275767;22;20182;-72
2022/12/08 07:20:48;;;;;;;46.20;29.43;;;;;;;40.33;39.31;101022.78;6275707;22;20819;-72
2022/12/08 07:23:14;;;;;;;51.53;28.83;;;;;;;40.75;39.17;101027.44;6275711;22;20458;-72
2022/12/08 07:25:40;;;;;;;40.93;28.30;;;;;;;40.76;38.57;101034.50;6276008;22;20378;-73
2022/12/08 07:28:10;;;;;;;45.47;26.70;;;;;;;41.01;38.64;101046.50;6275760;22;20373;-74
2022/12/08 07:30:37;;;;;;;50.67;33.23;;;;;;;40.91;38.27;101044.09;6275475;22;20441;-73
2022/12/08 07:33:04;;;;;;;46.93;28.90;;;;;;;41.03;38.50;101051.59;6277669;22;20388;-73
2022/12/08 07:35:30;;;;;;;50.13;30.53;;;;;;;40.74;39.45;101044.09;6275680;22;20726;-72
2022/12/08 07:37:56;;;;;;;46.53;30.30;;;;;;;40.40;39.30;101050.31;6275395;22;20402;-72
2022/12/08 07:40:22;;;;;;;59.43;26.03;;;;;;;40.59;39.22;101058.19;6277683;22;20353;-72
2022/12/08 07:42:48;;;;;;;58.20;26.93;;;;;;;40.65;39.30;101056.91;6275496;22;20381;-73
2022/12/08 07:45:14;;;;;;;41.57;29.73;;;;;;;40.87;38.95;101061.34;6275438;22;20424;-72
2022/12/08 07:47:40;;;;;;;54.43;34.33;;;;;;;40.55;39.58;101061.53;6275584;22;20369;-72
2022/12/08 07:50:07;;;;;;;53.87;32.97;;;;;;;40.93;38.70;101058.16;6275377;22;20916;-73
2022/12/08 07:52:34;;;;;;;53.13;30.53;;;;;;;40.77;39.03;101073.38;6275347;22;20178;-73
2022/12/08 07:55:00;;;;;;;48.53;30.17;;;;;;;40.90;38.38;101066.16;6275420;22;20795;-72
2022/12/08 07:57:26;;;;;;;38.63;27.07;;;;;;;40.85;38.91;101064.41;6273900;22;20886;-73
2022/12/08 07:59:51;;;;;;;52.10;29.30;;;;;;;41.22;38.42;101062.13;6277611;22;20365;-73
2022/12/08 08:02:18;;;;;;;39.00;25.43;;;;;;;40.92;38.29;101072.09;6275504;22;20382;-73
2022/12/08 08:04:44;;;;;;;45.00;26.97;;;;;;;40.34;39.55;101073.34;6277720;22;20440;-73
2022/12/08 08:07:10;;;;;;;26.27;23.13;;;;;;;40.84;38.92;101079.13;6275598;22;20405;-74
2022/12/08 08:09:36;;;;;;;33.03;24.07;;;;;;;40.97;38.84;101066.50;6275287;22;20409;-72
2022/12/08 08:12:02;;;;;;;29.67;22.80;;;;;;;41.29;38.48;101068.66;6277465;22;20361;-73
2022/12/08 08:14:28;;;;;;;42.03;20.80;;;;;;;41.25;38.13;101064.19;6275485;22;20435;-73
2022/12/08 08:16:54;;;;;;;32.73;21.73;;;;;;;41.43;37.88;101073.94;6275663;22;20464;-72
2022/12/08 08:19:20;;;;;;;34.43;20.60;;;;;;;40.75;38.67;101070.16;6277153;22;20346;-73
2022/12/08 08:21:46;;;;;;;32.60;20.03;;;;;;;41.13;37.81;101064.88;6275195;22;20613;-73
2022/12/08 08:24:12;;;;;;;25.27;17.20;;;;;;;40.81;38.34;101063.44;6275546;22;20834;-72
2022/12/08 08:26:38;;;;;;;33.60;21.47;;;;;;;41.44;37.87;101058.41;6275174;22;20373;-72
2022/12/08 08:29:04;;;;;;;32.53;20.33;;;;;;;41.60;37.47;101064.91;6275015;22;20479;-72
2022/12/08 08:31:30;;;;;;;46.87;21.17;;;;;;;41.65;36.95;101059.28;6274863;22;20437;-72
2022/12/08 08:33:56;;;;;;;27.43;16.80;;;;;;;41.15;37.67;101059.91;6274993;22;20373;-73
2022/12/08 08:36:22;;;;;;;36.80;18.30;;;;;;;41.51;37.05;101055.97;6275067;22;20388;-71
2022/12/08 08:38:48;;;;;;;32.03;19.90;;;;;;;41.63;36.98;101063.47;6275414;22;20716;-72
2022/12/08 08:41:14;;;;;;;30.13;18.10;;;;;;;41.70;37.15;101061.81;6275098;22;20698;-72
2022/12/08 08:43:40;;;;;;;41.23;20.43;;;;;;;41.99;36.60;101069.22;6249582;22;20460;-73
2022/12/08 08:46:07;;;;;;;30.63;18.40;;;;;;;41.87;36.69;101063.69;6275269;22;20381;-73
2022/12/08 08:48:34;;;;;;;33.37;17.40;;;;;;;41.83;36.72;101063.53;6274639;22;20777;-73
2022/12/08 08:51:10;;;;;;;28.40;16.40;;;;;;;41.93;36.58;101067.81;6276882;22;20354;-73
2022/12/08 08:53:36;;;;;;;30.07;18.43;;;;;;;42.15;35.88;101061.25;6274951;22;20456;-73
2022/12/08 08:56:06;;;;;;;22.33;15.10;;;;;;;42.14;35.40;101062.41;6274798;22;20869;-72
2022/12/08 08:58:32;;;;;;;24.87;16.73;;;;;;;42.16;35.65;101060.16;6249448;22;20440;-73
2022/12/08 09:00:58;;;;;;;34.13;17.60;;;;;;;42.28;35.57;101064.88;6274766;22;20381;-73
2022/12/08 09:03:24;;;;;;;22.17;14.27;;;;;;;42.08;35.78;101061.00;6274949;22;20488;-73
2022/12/08 09:05:50;;;;;;;21.20;13.30;;;;;;;42.11;35.46;101068.50;6274719;22;20401;-73
2022/12/08 09:08:16;;;;;;;18.37;12.80;;;;;;;41.88;35.78;101078.13;6275021;22;20380;-73
2022/12/08 09:10:42;;;;;;;21.70;13.50;;;;;;;41.99;35.96;101077.41;6274622;22;20425;-73
2022/12/08 09:13:08;;;;;;;22.43;14.87;;;;;;;42.12;35.61;101067.38;6275374;22;20385;-74
2022/12/08 09:15:34;;;;;;;20.03;12.60;;;;;;;41.95;35.42;101071.00;6274533;22;20405;-73
2022/12/08 09:18:00;;;;;;;19.00;14.70;;;;;;;42.18;35.78;101066.09;6274663;22;20385;-74
2022/12/08 09:20:26;;;;;;;24.63;12.77;;;;;;;42.30;35.21;101073.56;6274350;22;20384;-73
2022/12/08 09:22:52;;;;;;;22.43;13.53;;;;;;;42.42;35.17;101060.00;6274890;22;20409;-73
2022/12/08 09:25:18;;;;;;;27.57;14.83;;;;;;;42.53;34.75;101057.63;6276505;22;20742;-75
2022/12/08 09:27:44;;;;;;;19.10;14.20;;;;;;;42.16;35.51;101064.78;6274492;22;20937;-73
2022/12/08 09:30:10;;;;;;;22.43;13.40;;;;;;;42.36;35.08;101070.28;6274225;22;20937;-74
2022/12/08 09:32:36;;;;;;;17.47;14.10;;;;;;;42.08;35.45;101063.72;6274334;22;20428;-73
2022/12/08 09:35:02;;;;;;;25.93;14.73;;;;;;;42.37;35.31;101074.63;6274472;22;20725;-75
2022/12/08 09:37:27;;;;;;;19.20;12.07;;;;;;;42.28;35.11;101076.59;6274448;22;20893;-75
2022/12/08 09:39:53;;;;;;;19.80;12.60;;;;;;;42.22;35.75;101068.94;6274377;22;20370;-73
2022/12/08 09:42:43;;;;;;;19.23;12.03;;;;;;;41.71;36.43;101073.50;6276643;22;20127;-73
2022/12/08 09:45:13;;;;;;;22.83;13.23;;;;;;;42.11;35.96;101068.50;6274281;22;20440;-74
2022/12/08 09:47:44;;;;;;;20.80;15.40;;;;;;;42.36;35.52;101064.84;6274426;22;20374;-75
2022/12/08 09:50:21;;;;;;;18.00;12.97;;;;;;;42.14;35.80;101062.41;6274020;22;20500;-74
2022/12/08 09:53:07;;;;;;;17.70;14.33;;;;;;;42.38;35.33;101061.78;6274285;22;20405;-73
2022/12/08 09:55:45;;;;;;;34.40;14.57;;;;;;;42.63;35.29;101070.91;6248779;22;20463;-75
2022/12/08 09:58:50;;;;;;;26.87;21.43;;;;;;;42.33;35.17;101065.50;6274288;22;20377;-72
2022/12/08 10:01:18;;;;;;;27.03;14.20;;;;;;;42.44;35.36;101068.63;6230707;22;20496;-73
2022/12/08 10:03:45;;;;;;;21.20;15.23;;;;;;;42.47;35.52;101056.25;6274318;22;20937;-75
2022/12/08 10:06:32;;;;;;;19.47;13.43;;;;;;;42.47;35.15;101069.88;6274349;22;20378;-74
2022/12/08 10:09:32;;;;;;;24.63;16.30;;;;;;;42.59;35.13;101072.69;6274374;22;20464;-75
2022/12/08 10:12:30;;;;;;;47.57;22.00;;;;;;;42.57;34.98;101059.41;6274257;22;20369;-73
2022/12/08 10:15:02;;;;;;;30.70;18.83;;;;;;;42.53;35.16;101060.34;6274317;22;20428;-73
2022/12/08 10:17:34;;;;;;;27.53;15.93;;;;;;;42.44;35.61;101051.47;6274116;22;20492;-73
2022/12/08 10:20:22;;;;;;;29.07;17.97;;;;;;;42.46;35.06;101049.19;6274313;22;20436;-74
2022/12/08 10:23:12;;;;;;;25.20;15.37;;;;;;;42.66;34.86;101040.22;6276148;22;20812;-73
2022/12/08 10:25:55;;;;;;;24.53;15.10;;;;;;;42.55;35.19;101037.09;6274198;22;20377;-73
2022/12/08 10:28:21;;;;;;;26.20;14.50;;;;;;;42.40;35.95;101043.94;6274248;22;20381;-73
2022/12/08 10:30:47;;;;;;;27.97;13.83;;;;;;;42.51;35.30;101041.63;6275367;22;20439;-74
2022/12/08 10:33:19;;;;;;;15.73;13.20;;;;;;;42.63;35.34;101038.16;6248641;22;20451;-74
2022/12/08 10:35:45;;;;;;;22.30;17.10;;;;;;;42.71;35.14;101034.56;6248424;22;20408;-75
2022/12/08 10:38:29;;;;;;;25.43;13.80;;;;;;;42.65;34.66;101031.22;6249775;22;20405;-74
2022/12/08 10:41:05;;;;;;;25.50;14.37;;;;;;;42.36;35.30;101029.41;6250712;22;20211;-73
2022/12/08 10:43:33;;;;;;;25.03;14.70;;;;;;;42.01;35.94;101020.63;6250683;22;20389;-73
2022/12/08 10:46:21;;;;;;;24.40;13.53;;;;;;;42.30;35.85;101014.38;6250618;22;20488;-74
2022/12/08 10:48:52;;;;;;;24.07;16.13;;;;;;;42.24;35.95;101021.16;6250599;22;20393;-74
2022/12/08 10:51:36;;;;;;;24.83;17.20;;;;;;;42.27;35.89;101008.78;6250297;22;20388;-75
2022/12/08 10:54:04;;;;;;;23.97;14.83;;;;;;;42.58;35.19;101011.09;6250343;22;20842;-74
2022/12/08 10:56:31;;;;;;;29.27;17.80;;;;;;;42.67;35.50;101017.28;6250731;22;20397;-74
2022/12/08 10:59:18;;;;;;;17.17;13.13;;;;;;;42.60;35.51;101006.09;6250825;22;20373;-73
2022/12/08 11:01:49;;;;;;;20.53;13.47;;;;;;;42.67;34.87;101000.91;6250363;22;20409;-73
2022/12/08 11:04:37;;;;;;;21.10;14.00;;;;;;;42.83;34.89;101001.06;6250212;22;20405;-75
2022/12/08 11:07:11;;;;;;;22.20;13.57;;;;;;;42.62;35.28;101001.91;6250481;22;20382;-73
2022/12/08 11:09:47;;;;;;;28.83;17.00;;;;;;;42.52;35.15;101012.41;6250068;22;20428;-73
2022/12/08 11:12:21;;;;;;;35.80;18.30;;;;;;;42.56;35.54;100999.69;6250344;22;20450;-73
2022/12/08 11:14:54;;;;;;;20.90;13.33;;;;;;;42.74;35.06;101005.81;6250294;22;20901;-75
2022/12/08 11:17:20;;;;;;;23.43;14.77;;;;;;;42.55;35.47;100990.72;6250430;22;20455;-75
2022/12/08 11:19:58;;;;;;;31.60;13.87;;;;;;;42.40;35.41;100989.41;6277760;22;20683;-75
2022/12/08 11:22:32;;;;;;;22.47;18.80;;;;;;;42.61;35.25;100986.69;6277674;22;20570;-74
2022/12/08 11:25:07;;;;;;;22.03;13.43;;;;;;;42.66;35.22;100988.38;6250297;22;20401;-74
2022/12/08 11:27:38;;;;;;;20.17;14.17;;;;;;;42.52;35.20;100977.75;6250264;22;20773;-75